Mabscott, WV (25871)

2:45 AM EDT on March 23, 2017 (GMT -0400)
Raleigh County Memorial | | Change Station

Elev 2503 ft 37.79 °N, 81.12 °W | Updated 54 minutes ago

Partly Cloudy
Partly Cloudy
26 °F
Feels Like 22 °F
N
4
Wind Variable Wind from ESE

Today
High -- | Low -- °F
--% Chance of Precip.
Yesterday
High -- | Low -- °F
Precip. -- in
Pressure 30.46 in
Visibility 10.0 miles
Clouds Clear
Windchill 22 °F
Dew Point 14 °F
Humidity 60%
Rainfall 0.00 in
Snow Depth Not available.
7:23 AM 7:39 PM
Waning Crescent, 26% visible
METAR KBKW 230551Z AUTO 11003KT 10SM CLR M03/M10 A3038 RMK AO2 SLP315 T10331100 10022 21044 58001
Pressure 30.46 in
Visibility 10.0 miles
Clouds Clear
Windchill 22 °F
Dew Point 14 °F
Humidity 60%
Rainfall 0.00 in
Snow Depth Not available.
7:23 AM 7:39 PM
Waning Crescent, 26% visible
METAR KBKW 230551Z AUTO 11003KT 10SM CLR M03/M10 A3038 RMK AO2 SLP315 T10331100 10022 21044 58001

Get Severe Weather Alerts

Thanks for signing up!

Be on the lookout for a verification email in your inbox.

You'll start receiving the daily forecast at 8 AM.

×

10-Day Weather Forecast

Almanac

Astronomy

Mar. 23, 2017 Rise Set
Actual Time
Civil Twilight
Nautical Twilight
Astronomical Twilight
Moon
Length of Visible Light
Length of Day
Tomorrow will be .
, % of the Moon is Illuminated

Today's Extremes

State Highs State Lows

Community

WunderPhotos

Upload Photos

1,962,540 photos uploaded!

WunderBlog® & News

Nearby

Air Quality

  Air Quality AQ Index Pollutant
Not available.

Snow Depth

Station Depth Elevation

Earthquake Activity

City Distance Mag. Time & Date
Minimum magnitude displayed is 2.5.

Earthquake Activity

City Distance Mag. Time & Date
Minimum magnitude displayed is 2.5.

Coastal Water Temperatures

Place Temperature

Stations

Nearby Weather Stations

Station Location Temp. Windchill Dew Point Humidity Wind Precip. Elev Updated Type
                   

Watches & Warnings

There are currently no watches in effect.